sensor_id;sensor_type;location;lat;lon;timestamp;temperature;humidity
63047;DHT22;62025;39.238;9.126;2022-12-07T00:01:22;14.20;69.20
63047;DHT22;62025;39.238;9.126;2022-12-07T00:03:51;14.20;69.20
63047;DHT22;62025;39.238;9.126;2022-12-07T00:06:19;14.20;69.20
63047;DHT22;62025;39.238;9.126;2022-12-07T00:08:46;14.20;69.10
63047;DHT22;62025;39.238;9.126;2022-12-07T00:11:16;14.10;69.50
63047;DHT22;62025;39.238;9.126;2022-12-07T00:13:43;14.10;69.40
63047;DHT22;62025;39.238;9.126;2022-12-07T00:16:16;14.10;69.10
63047;DHT22;62025;39.238;9.126;2022-12-07T00:18:43;14.20;69.00
63047;DHT22;62025;39.238;9.126;2022-12-07T00:21:12;14.20;68.80
63047;DHT22;62025;39.238;9.126;2022-12-07T00:23:39;14.00;68.50
63047;DHT22;62025;39.238;9.126;2022-12-07T00:26:07;13.90;68.80
63047;DHT22;62025;39.238;9.126;2022-12-07T00:28:35;13.90;68.60
63047;DHT22;62025;39.238;9.126;2022-12-07T00:31:04;13.80;68.90
63047;DHT22;62025;39.238;9.126;2022-12-07T00:33:32;13.80;69.10
63047;DHT22;62025;39.238;9.126;2022-12-07T00:35:59;13.70;69.50
63047;DHT22;62025;39.238;9.126;2022-12-07T00:38:28;13.70;69.30
63047;DHT22;62025;39.238;9.126;2022-12-07T00:41:00;13.70;69.20
63047;DHT22;62025;39.238;9.126;2022-12-07T00:43:27;13.70;69.40
63047;DHT22;62025;39.238;9.126;2022-12-07T00:45:54;13.70;69.00
63047;DHT22;62025;39.238;9.126;2022-12-07T00:48:21;13.70;68.70
63047;DHT22;62025;39.238;9.126;2022-12-07T00:50:47;13.70;68.80
63047;DHT22;62025;39.238;9.126;2022-12-07T00:53:14;13.60;68.90
63047;DHT22;62025;39.238;9.126;2022-12-07T00:55:40;13.70;69.00
63047;DHT22;62025;39.238;9.126;2022-12-07T00:58:06;13.70;68.80
63047;DHT22;62025;39.238;9.126;2022-12-07T01:00:32;13.70;68.90
63047;DHT22;62025;39.238;9.126;2022-12-07T01:03:00;13.70;68.60
63047;DHT22;62025;39.238;9.126;2022-12-07T01:05:26;13.80;68.50
63047;DHT22;62025;39.238;9.126;2022-12-07T01:07:52;13.70;68.50
63047;DHT22;62025;39.238;9.126;2022-12-07T01:10:18;13.80;68.50
63047;DHT22;62025;39.238;9.126;2022-12-07T01:12:44;13.70;68.60
63047;DHT22;62025;39.238;9.126;2022-12-07T01:15:10;13.70;68.60
63047;DHT22;62025;39.238;9.126;2022-12-07T01:17:36;13.60;68.70
63047;DHT22;62025;39.238;9.126;2022-12-07T01:20:03;13.60;68.80
63047;DHT22;62025;39.238;9.126;2022-12-07T01:22:29;13.60;68.80
63047;DHT22;62025;39.238;9.126;2022-12-07T01:24:55;13.60;68.30
63047;DHT22;62025;39.238;9.126;2022-12-07T01:27:21;13.60;67.70
63047;DHT22;62025;39.238;9.126;2022-12-07T01:29:47;13.70;67.00
63047;DHT22;62025;39.238;9.126;2022-12-07T01:32:13;13.60;66.40
63047;DHT22;62025;39.238;9.126;2022-12-07T01:34:39;13.60;65.90
63047;DHT22;62025;39.238;9.126;2022-12-07T01:37:05;13.60;65.60
63047;DHT22;62025;39.238;9.126;2022-12-07T01:39:31;13.60;65.00
63047;DHT22;62025;39.238;9.126;2022-12-07T01:41:57;13.60;65.20
63047;DHT22;62025;39.238;9.126;2022-12-07T01:44:25;13.60;65.60
63047;DHT22;62025;39.238;9.126;2022-12-07T01:47:01;13.70;65.90
63047;DHT22;62025;39.238;9.126;2022-12-07T01:49:44;13.70;65.80
63047;DHT22;62025;39.238;9.126;2022-12-07T01:54:52;13.80;65.50
63047;DHT22;62025;39.238;9.126;2022-12-07T01:57:21;13.80;65.20
63047;DHT22;62025;39.238;9.126;2022-12-07T01:59:48;13.50;65.10
63047;DHT22;62025;39.238;9.126;2022-12-07T02:02:23;13.40;65.10
63047;DHT22;62025;39.238;9.126;2022-12-07T02:04:53;13.30;65.20
63047;DHT22;62025;39.238;9.126;2022-12-07T02:07:20;13.30;65.40
63047;DHT22;62025;39.238;9.126;2022-12-07T02:09:46;13.30;65.50
63047;DHT22;62025;39.238;9.126;2022-12-07T02:12:12;13.40;64.90
63047;DHT22;62025;39.238;9.126;2022-12-07T02:14:38;13.50;64.00
63047;DHT22;62025;39.238;9.126;2022-12-07T02:17:21;13.60;63.30
63047;DHT22;62025;39.238;9.126;2022-12-07T02:20:26;13.50;63.30
63047;DHT22;62025;39.238;9.126;2022-12-07T02:31:31;13.50;62.80
63047;DHT22;62025;39.238;9.126;2022-12-07T02:34:09;13.40;62.80
63047;DHT22;62025;39.238;9.126;2022-12-07T02:36:52;13.40;62.90
63047;DHT22;62025;39.238;9.126;2022-12-07T02:42:04;13.40;62.90
63047;DHT22;62025;39.238;9.126;2022-12-07T02:44:35;13.40;62.40
63047;DHT22;62025;39.238;9.126;2022-12-07T02:47:05;13.40;62.00
63047;DHT22;62025;39.238;9.126;2022-12-07T02:49:33;13.30;62.20
63047;DHT22;62025;39.238;9.126;2022-12-07T02:51:59;13.30;62.70
63047;DHT22;62025;39.238;9.126;2022-12-07T02:54:25;13.40;62.70
63047;DHT22;62025;39.238;9.126;2022-12-07T03:00:03;13.50;62.90
63047;DHT22;62025;39.238;9.126;2022-12-07T03:02:39;13.40;62.70
63047;DHT22;62025;39.238;9.126;2022-12-07T03:08:12;13.40;63.50
63047;DHT22;62025;39.238;9.126;2022-12-07T03:10:57;13.50;64.00
63047;DHT22;62025;39.238;9.126;2022-12-07T03:13:51;13.60;64.00
63047;DHT22;62025;39.238;9.126;2022-12-07T03:16:26;13.50;64.90
63047;DHT22;62025;39.238;9.126;2022-12-07T03:19:18;13.40;65.40
63047;DHT22;62025;39.238;9.126;2022-12-07T03:22:02;13.40;65.70
63047;DHT22;62025;39.238;9.126;2022-12-07T03:24:42;13.40;66.10
63047;DHT22;62025;39.238;9.126;2022-12-07T03:27:37;13.40;66.30
63047;DHT22;62025;39.238;9.126;2022-12-07T03:30:16;13.60;66.30
63047;DHT22;62025;39.238;9.126;2022-12-07T03:33:06;13.70;66.30
63047;DHT22;62025;39.238;9.126;2022-12-07T03:35:43;13.70;66.40
63047;DHT22;62025;39.238;9.126;2022-12-07T03:38:45;13.80;66.70
63047;DHT22;62025;39.238;9.126;2022-12-07T03:41:31;13.80;66.80
63047;DHT22;62025;39.238;9.126;2022-12-07T03:43:59;13.80;66.90
63047;DHT22;62025;39.238;9.126;2022-12-07T03:49:33;13.70;66.90
63047;DHT22;62025;39.238;9.126;2022-12-07T03:55:20;13.60;66.90
63047;DHT22;62025;39.238;9.126;2022-12-07T03:58:00;13.60;66.60
63047;DHT22;62025;39.238;9.126;2022-12-07T04:00:29;13.40;66.10
63047;DHT22;62025;39.238;9.126;2022-12-07T04:02:56;13.30;65.90
63047;DHT22;62025;39.238;9.126;2022-12-07T04:05:23;13.30;65.70
63047;DHT22;62025;39.238;9.126;2022-12-07T04:07:49;13.30;65.50
63047;DHT22;62025;39.238;9.126;2022-12-07T04:10:15;13.30;65.50
63047;DHT22;62025;39.238;9.126;2022-12-07T04:12:41;13.50;64.90
63047;DHT22;62025;39.238;9.126;2022-12-07T04:15:07;13.40;64.60
63047;DHT22;62025;39.238;9.126;2022-12-07T04:17:34;13.50;64.30
63047;DHT22;62025;39.238;9.126;2022-12-07T04:20:00;13.40;64.20
63047;DHT22;62025;39.238;9.126;2022-12-07T04:22:26;13.40;64.40
63047;DHT22;62025;39.238;9.126;2022-12-07T04:24:52;13.30;64.20
63047;DHT22;62025;39.238;9.126;2022-12-07T04:27:18;13.30;64.50
63047;DHT22;62025;39.238;9.126;2022-12-07T04:29:44;13.30;64.40
63047;DHT22;62025;39.238;9.126;2022-12-07T04:32:10;13.30;64.30
63047;DHT22;62025;39.238;9.126;2022-12-07T04:34:36;13.40;64.40
63047;DHT22;62025;39.238;9.126;2022-12-07T04:37:02;13.30;64.50
63047;DHT22;62025;39.238;9.126;2022-12-07T04:39:30;13.30;64.70
63047;DHT22;62025;39.238;9.126;2022-12-07T04:41:58;13.30;64.60
63047;DHT22;62025;39.238;9.126;2022-12-07T04:44:25;13.30;64.20
63047;DHT22;62025;39.238;9.126;2022-12-07T04:46:53;13.20;64.20
63047;DHT22;62025;39.238;9.126;2022-12-07T04:49:19;13.10;64.50
63047;DHT22;62025;39.238;9.126;2022-12-07T04:51:45;13.10;64.30
63047;DHT22;62025;39.238;9.126;2022-12-07T04:54:13;13.10;64.30
63047;DHT22;62025;39.238;9.126;2022-12-07T04:56:40;13.00;64.70
63047;DHT22;62025;39.238;9.126;2022-12-07T04:59:06;13.10;64.60
63047;DHT22;62025;39.238;9.126;2022-12-07T05:01:33;12.90;65.10
63047;DHT22;62025;39.238;9.126;2022-12-07T05:03:59;12.90;65.20
63047;DHT22;62025;39.238;9.126;2022-12-07T05:06:25;12.80;65.70
63047;DHT22;62025;39.238;9.126;2022-12-07T05:08:51;12.90;65.80
63047;DHT22;62025;39.238;9.126;2022-12-07T05:11:17;12.80;66.30
63047;DHT22;62025;39.238;9.126;2022-12-07T05:14:07;12.90;66.60
63047;DHT22;62025;39.238;9.126;2022-12-07T05:16:37;12.70;67.20
63047;DHT22;62025;39.238;9.126;2022-12-07T05:19:03;12.50;67.40
63047;DHT22;62025;39.238;9.126;2022-12-07T05:21:30;12.50;67.80
63047;DHT22;62025;39.238;9.126;2022-12-07T05:23:56;12.50;68.10
63047;DHT22;62025;39.238;9.126;2022-12-07T05:26:22;12.30;68.30
63047;DHT22;62025;39.238;9.126;2022-12-07T05:28:52;12.30;69.10
63047;DHT22;62025;39.238;9.126;2022-12-07T05:31:19;12.30;69.10
63047;DHT22;62025;39.238;9.126;2022-12-07T05:33:45;12.20;69.10
63047;DHT22;62025;39.238;9.126;2022-12-07T05:36:12;12.20;69.50
63047;DHT22;62025;39.238;9.126;2022-12-07T05:38:38;12.20;69.60
63047;DHT22;62025;39.238;9.126;2022-12-07T05:41:06;12.30;69.20
63047;DHT22;62025;39.238;9.126;2022-12-07T05:43:33;12.30;69.00
63047;DHT22;62025;39.238;9.126;2022-12-07T05:45:59;12.30;69.00
63047;DHT22;62025;39.238;9.126;2022-12-07T05:48:25;12.30;69.60
63047;DHT22;62025;39.238;9.126;2022-12-07T05:50:52;12.30;69.80
63047;DHT22;62025;39.238;9.126;2022-12-07T05:53:18;12.40;70.10
63047;DHT22;62025;39.238;9.126;2022-12-07T05:55:44;12.40;70.20
63047;DHT22;62025;39.238;9.126;2022-12-07T05:58:11;12.40;70.40
63047;DHT22;62025;39.238;9.126;2022-12-07T06:00:56;12.50;70.30
63047;DHT22;62025;39.238;9.126;2022-12-07T06:03:22;12.60;69.90
63047;DHT22;62025;39.238;9.126;2022-12-07T06:05:49;12.60;70.00
63047;DHT22;62025;39.238;9.126;2022-12-07T06:08:15;12.70;70.20
63047;DHT22;62025;39.238;9.126;2022-12-07T06:10:41;12.80;70.20
63047;DHT22;62025;39.238;9.126;2022-12-07T06:13:08;12.80;70.30
63047;DHT22;62025;39.238;9.126;2022-12-07T06:15:37;12.80;69.80
63047;DHT22;62025;39.238;9.126;2022-12-07T06:18:04;12.80;69.50
63047;DHT22;62025;39.238;9.126;2022-12-07T06:20:30;12.80;69.00
63047;DHT22;62025;39.238;9.126;2022-12-07T06:22:56;12.80;68.50
63047;DHT22;62025;39.238;9.126;2022-12-07T06:25:22;12.80;68.50
63047;DHT22;62025;39.238;9.126;2022-12-07T06:27:48;12.80;68.50
63047;DHT22;62025;39.238;9.126;2022-12-07T06:30:14;12.70;68.90
63047;DHT22;62025;39.238;9.126;2022-12-07T06:32:40;12.80;69.20
63047;DHT22;62025;39.238;9.126;2022-12-07T06:35:06;12.80;69.20
63047;DHT22;62025;39.238;9.126;2022-12-07T06:37:32;12.80;69.40
63047;DHT22;62025;39.238;9.126;2022-12-07T06:39:58;12.90;69.60
63047;DHT22;62025;39.238;9.126;2022-12-07T06:42:24;13.00;69.90
63047;DHT22;62025;39.238;9.126;2022-12-07T06:44:50;12.90;70.50
63047;DHT22;62025;39.238;9.126;2022-12-07T06:47:16;13.10;70.90
63047;DHT22;62025;39.238;9.126;2022-12-07T06:49:42;13.20;71.10
63047;DHT22;62025;39.238;9.126;2022-12-07T06:52:08;13.30;71.40
63047;DHT22;62025;39.238;9.126;2022-12-07T06:54:34;13.30;71.90
63047;DHT22;62025;39.238;9.126;2022-12-07T06:57:00;13.30;71.70
63047;DHT22;62025;39.238;9.126;2022-12-07T06:59:26;13.30;72.20
63047;DHT22;62025;39.238;9.126;2022-12-07T07:01:52;13.40;72.10
63047;DHT22;62025;39.238;9.126;2022-12-07T07:04:18;13.50;72.00
63047;DHT22;62025;39.238;9.126;2022-12-07T07:06:44;13.80;71.40
63047;DHT22;62025;39.238;9.126;2022-12-07T07:09:10;14.00;70.90
63047;DHT22;62025;39.238;9.126;2022-12-07T07:11:36;14.10;70.80
63047;DHT22;62025;39.238;9.126;2022-12-07T07:14:02;14.30;70.50
63047;DHT22;62025;39.238;9.126;2022-12-07T07:16:31;14.30;70.10
63047;DHT22;62025;39.238;9.126;2022-12-07T07:18:57;14.60;69.80
63047;DHT22;62025;39.238;9.126;2022-12-07T07:21:23;14.70;69.40
63047;DHT22;62025;39.238;9.126;2022-12-07T07:23:49;14.80;69.00
63047;DHT22;62025;39.238;9.126;2022-12-07T07:26:15;15.00;68.70
63047;DHT22;62025;39.238;9.126;2022-12-07T07:28:41;15.10;68.30
63047;DHT22;62025;39.238;9.126;2022-12-07T07:31:07;15.20;68.10
63047;DHT22;62025;39.238;9.126;2022-12-07T07:33:33;15.30;67.40
63047;DHT22;62025;39.238;9.126;2022-12-07T07:35:59;15.40;67.10
63047;DHT22;62025;39.238;9.126;2022-12-07T07:38:24;15.50;65.70
63047;DHT22;62025;39.238;9.126;2022-12-07T07:40:50;15.50;63.50
63047;DHT22;62025;39.238;9.126;2022-12-07T07:43:16;15.40;62.80
63047;DHT22;62025;39.238;9.126;2022-12-07T07:45:42;15.40;62.00
63047;DHT22;62025;39.238;9.126;2022-12-07T07:48:09;15.30;61.90
63047;DHT22;62025;39.238;9.126;2022-12-07T07:50:35;15.30;61.40
63047;DHT22;62025;39.238;9.126;2022-12-07T07:53:01;15.40;61.30
63047;DHT22;62025;39.238;9.126;2022-12-07T07:55:27;15.50;61.10
63047;DHT22;62025;39.238;9.126;2022-12-07T07:57:54;15.60;60.80
63047;DHT22;62025;39.238;9.126;2022-12-07T08:00:20;15.80;60.90
63047;DHT22;62025;39.238;9.126;2022-12-07T08:02:47;15.80;60.40
63047;DHT22;62025;39.238;9.126;2022-12-07T08:05:13;15.70;60.90
63047;DHT22;62025;39.238;9.126;2022-12-07T08:07:39;15.90;61.10
63047;DHT22;62025;39.238;9.126;2022-12-07T08:10:07;16.10;61.10
63047;DHT22;62025;39.238;9.126;2022-12-07T08:12:37;16.30;61.30
63047;DHT22;62025;39.238;9.126;2022-12-07T08:15:24;16.50;61.20
63047;DHT22;62025;39.238;9.126;2022-12-07T08:17:50;16.80;61.20
63047;DHT22;62025;39.238;9.126;2022-12-07T08:20:16;17.10;60.70
63047;DHT22;62025;39.238;9.126;2022-12-07T08:22:42;17.50;59.80
63047;DHT22;62025;39.238;9.126;2022-12-07T08:25:08;17.60;59.70
63047;DHT22;62025;39.238;9.126;2022-12-07T08:27:34;17.70;59.50
63047;DHT22;62025;39.238;9.126;2022-12-07T08:30:00;17.80;59.30
63047;DHT22;62025;39.238;9.126;2022-12-07T08:32:26;17.90;58.70
63047;DHT22;62025;39.238;9.126;2022-12-07T08:34:52;18.20;58.30
63047;DHT22;62025;39.238;9.126;2022-12-07T08:37:18;18.40;57.80
63047;DHT22;62025;39.238;9.126;2022-12-07T08:39:44;18.70;57.70
63047;DHT22;62025;39.238;9.126;2022-12-07T08:42:09;18.80;57.30
63047;DHT22;62025;39.238;9.126;2022-12-07T08:44:37;18.90;57.30
63047;DHT22;62025;39.238;9.126;2022-12-07T08:47:04;19.00;57.40
63047;DHT22;62025;39.238;9.126;2022-12-07T08:49:39;19.10;57.00
63047;DHT22;62025;39.238;9.126;2022-12-07T08:52:07;18.90;58.10
63047;DHT22;62025;39.238;9.126;2022-12-07T08:54:35;19.20;59.10
63047;DHT22;62025;39.238;9.126;2022-12-07T08:57:03;18.60;59.20
63047;DHT22;62025;39.238;9.126;2022-12-07T08:59:30;18.00;60.80
63047;DHT22;62025;39.238;9.126;2022-12-07T09:01:56;17.90;62.50
63047;DHT22;62025;39.238;9.126;2022-12-07T09:04:22;18.10;62.80
63047;DHT22;62025;39.238;9.126;2022-12-07T09:06:48;18.80;60.40
63047;DHT22;62025;39.238;9.126;2022-12-07T09:09:15;18.60;59.70
63047;DHT22;62025;39.238;9.126;2022-12-07T09:11:41;18.30;61.80
63047;DHT22;62025;39.238;9.126;2022-12-07T09:14:07;18.90;61.00
63047;DHT22;62025;39.238;9.126;2022-12-07T09:16:33;19.00;60.00
63047;DHT22;62025;39.238;9.126;2022-12-07T09:18:59;18.70;61.30
63047;DHT22;62025;39.238;9.126;2022-12-07T09:21:25;19.00;60.90
63047;DHT22;62025;39.238;9.126;2022-12-07T09:23:51;19.20;59.90
63047;DHT22;62025;39.238;9.126;2022-12-07T09:26:17;18.90;60.40
63047;DHT22;62025;39.238;9.126;2022-12-07T09:28:43;19.00;60.60
63047;DHT22;62025;39.238;9.126;2022-12-07T09:31:09;19.30;60.10
63047;DHT22;62025;39.238;9.126;2022-12-07T09:33:35;19.10;60.30
63047;DHT22;62025;39.238;9.126;2022-12-07T09:36:01;19.10;60.60
63047;DHT22;62025;39.238;9.126;2022-12-07T09:38:28;19.50;59.80
63047;DHT22;62025;39.238;9.126;2022-12-07T09:40:55;19.40;59.50
63047;DHT22;62025;39.238;9.126;2022-12-07T09:43:23;19.30;60.20
63047;DHT22;62025;39.238;9.126;2022-12-07T09:45:53;19.60;59.60
63047;DHT22;62025;39.238;9.126;2022-12-07T09:48:33;19.80;59.10
63047;DHT22;62025;39.238;9.126;2022-12-07T09:51:30;19.80;59.00
63047;DHT22;62025;39.238;9.126;2022-12-07T09:53:58;19.90;59.00
63047;DHT22;62025;39.238;9.126;2022-12-07T09:56:24;19.90;59.20
63047;DHT22;62025;39.238;9.126;2022-12-07T09:58:57;19.90;59.10
63047;DHT22;62025;39.238;9.126;2022-12-07T10:01:29;19.90;59.40
63047;DHT22;62025;39.238;9.126;2022-12-07T10:06:40;20.10;58.40
63047;DHT22;62025;39.238;9.126;2022-12-07T10:09:17;20.10;58.20
63047;DHT22;62025;39.238;9.126;2022-12-07T10:12:08;20.10;57.90
63047;DHT22;62025;39.238;9.126;2022-12-07T10:14:39;20.00;57.70
63047;DHT22;62025;39.238;9.126;2022-12-07T10:17:36;19.90;58.00
63047;DHT22;62025;39.238;9.126;2022-12-07T10:20:26;20.00;57.90
63047;DHT22;62025;39.238;9.126;2022-12-07T10:22:59;20.20;57.40
63047;DHT22;62025;39.238;9.126;2022-12-07T10:25:34;20.20;57.10
63047;DHT22;62025;39.238;9.126;2022-12-07T10:28:16;20.20;57.10
63047;DHT22;62025;39.238;9.126;2022-12-07T10:31:01;20.00;56.70
63047;DHT22;62025;39.238;9.126;2022-12-07T10:33:36;20.10;56.50
63047;DHT22;62025;39.238;9.126;2022-12-07T10:36:27;20.20;56.10
63047;DHT22;62025;39.238;9.126;2022-12-07T10:39:15;20.20;56.00
63047;DHT22;62025;39.238;9.126;2022-12-07T10:42:01;19.90;56.10
63047;DHT22;62025;39.238;9.126;2022-12-07T10:44:30;19.90;56.30
63047;DHT22;62025;39.238;9.126;2022-12-07T10:52:58;19.70;56.50
63047;DHT22;62025;39.238;9.126;2022-12-07T10:55:40;19.80;56.80
63047;DHT22;62025;39.238;9.126;2022-12-07T11:01:18;19.50;57.60
63047;DHT22;62025;39.238;9.126;2022-12-07T11:09:56;19.10;59.50
63047;DHT22;62025;39.238;9.126;2022-12-07T11:38:14;18.80;63.60
63047;DHT22;62025;39.238;9.126;2022-12-07T11:40:51;18.70;63.90
63047;DHT22;62025;39.238;9.126;2022-12-07T11:43:26;18.60;64.30
63047;DHT22;62025;39.238;9.126;2022-12-07T11:46:02;18.50;64.60
63047;DHT22;62025;39.238;9.126;2022-12-07T11:48:41;18.50;64.70
63047;DHT22;62025;39.238;9.126;2022-12-07T11:51:16;18.50;64.90
63047;DHT22;62025;39.238;9.126;2022-12-07T11:53:53;18.40;65.20
63047;DHT22;62025;39.238;9.126;2022-12-07T11:56:26;18.40;65.20
63047;DHT22;62025;39.238;9.126;2022-12-07T11:59:17;18.50;65.10
63047;DHT22;62025;39.238;9.126;2022-12-07T12:01:56;18.50;65.20
63047;DHT22;62025;39.238;9.126;2022-12-07T12:04:55;18.40;65.50
63047;DHT22;62025;39.238;9.126;2022-12-07T12:07:26;18.40;65.70
63047;DHT22;62025;39.238;9.126;2022-12-07T12:10:14;18.20;66.10
63047;DHT22;62025;39.238;9.126;2022-12-07T12:19:09;17.70;69.90
63047;DHT22;62025;39.238;9.126;2022-12-07T12:22:14;17.70;70.10
63047;DHT22;62025;39.238;9.126;2022-12-07T12:24:44;17.80;69.60
63047;DHT22;62025;39.238;9.126;2022-12-07T12:27:27;18.00;68.30
63047;DHT22;62025;39.238;9.126;2022-12-07T12:30:02;18.20;67.90
63047;DHT22;62025;39.238;9.126;2022-12-07T12:32:49;18.10;67.70
63047;DHT22;62025;39.238;9.126;2022-12-07T12:40:55;18.20;67.20
63047;DHT22;62025;39.238;9.126;2022-12-07T12:51:48;18.10;67.40
63047;DHT22;62025;39.238;9.126;2022-12-07T12:54:28;18.10;67.40
63047;DHT22;62025;39.238;9.126;2022-12-07T12:57:13;18.10;67.40
63047;DHT22;62025;39.238;9.126;2022-12-07T13:15:52;18.00;67.40
63047;DHT22;62025;39.238;9.126;2022-12-07T13:37:14;18.00;66.10
63047;DHT22;62025;39.238;9.126;2022-12-07T13:39:48;18.00;66.10
63047;DHT22;62025;39.238;9.126;2022-12-07T13:42:24;18.00;66.10
63047;DHT22;62025;39.238;9.126;2022-12-07T13:44:52;18.00;66.00
63047;DHT22;62025;39.238;9.126;2022-12-07T13:50:30;17.90;66.10
63047;DHT22;62025;39.238;9.126;2022-12-07T13:52:58;17.90;66.00
63047;DHT22;62025;39.238;9.126;2022-12-07T13:55:26;17.90;66.20
63047;DHT22;62025;39.238;9.126;2022-12-07T13:57:54;18.00;65.90
63047;DHT22;62025;39.238;9.126;2022-12-07T14:00:29;18.00;65.80
63047;DHT22;62025;39.238;9.126;2022-12-07T14:10:33;17.90;65.60
63047;DHT22;62025;39.238;9.126;2022-12-07T14:13:28;17.90;65.70
63047;DHT22;62025;39.238;9.126;2022-12-07T14:16:03;17.90;65.90
63047;DHT22;62025;39.238;9.126;2022-12-07T14:18:41;17.90;65.90
63047;DHT22;62025;39.238;9.126;2022-12-07T14:23:38;18.00;66.50
63047;DHT22;62025;39.238;9.126;2022-12-07T14:26:12;17.90;66.60
63047;DHT22;62025;39.238;9.126;2022-12-07T14:28:44;18.00;66.90
63047;DHT22;62025;39.238;9.126;2022-12-07T14:31:13;17.90;67.10
63047;DHT22;62025;39.238;9.126;2022-12-07T14:33:44;17.90;67.40
63047;DHT22;62025;39.238;9.126;2022-12-07T14:36:13;18.00;67.20
63047;DHT22;62025;39.238;9.126;2022-12-07T14:38:40;17.90;67.50
63047;DHT22;62025;39.238;9.126;2022-12-07T14:41:13;17.80;67.60
63047;DHT22;62025;39.238;9.126;2022-12-07T14:44:00;17.80;67.60
63047;DHT22;62025;39.238;9.126;2022-12-07T14:46:26;17.80;67.60
63047;DHT22;62025;39.238;9.126;2022-12-07T14:48:52;17.80;67.70
63047;DHT22;62025;39.238;9.126;2022-12-07T14:51:18;17.80;67.80
63047;DHT22;62025;39.238;9.126;2022-12-07T14:53:47;17.80;67.90
63047;DHT22;62025;39.238;9.126;2022-12-07T14:56:15;17.80;67.90
63047;DHT22;62025;39.238;9.126;2022-12-07T14:58:41;17.80;67.90
63047;DHT22;62025;39.238;9.126;2022-12-07T15:01:07;17.70;67.70
63047;DHT22;62025;39.238;9.126;2022-12-07T15:03:33;17.80;67.70
63047;DHT22;62025;39.238;9.126;2022-12-07T15:06:00;17.70;67.50
63047;DHT22;62025;39.238;9.126;2022-12-07T15:08:26;17.70;67.50
63047;DHT22;62025;39.238;9.126;2022-12-07T15:10:52;17.70;67.60
63047;DHT22;62025;39.238;9.126;2022-12-07T15:13:18;17.70;67.60
63047;DHT22;62025;39.238;9.126;2022-12-07T15:16:04;17.60;67.70
63047;DHT22;62025;39.238;9.126;2022-12-07T15:18:30;17.60;68.00
63047;DHT22;62025;39.238;9.126;2022-12-07T15:20:56;17.60;68.10
63047;DHT22;62025;39.238;9.126;2022-12-07T15:23:23;17.60;67.80
63047;DHT22;62025;39.238;9.126;2022-12-07T15:25:49;17.60;68.20
63047;DHT22;62025;39.238;9.126;2022-12-07T15:28:15;17.60;68.00
63047;DHT22;62025;39.238;9.126;2022-12-07T15:30:42;17.50;68.10
63047;DHT22;62025;39.238;9.126;2022-12-07T15:33:09;17.60;68.20
63047;DHT22;62025;39.238;9.126;2022-12-07T15:35:44;17.50;68.40
63047;DHT22;62025;39.238;9.126;2022-12-07T15:38:11;17.50;68.50
63047;DHT22;62025;39.238;9.126;2022-12-07T15:40:37;17.40;68.40
63047;DHT22;62025;39.238;9.126;2022-12-07T15:43:03;17.40;68.40
63047;DHT22;62025;39.238;9.126;2022-12-07T15:45:29;17.40;68.30
63047;DHT22;62025;39.238;9.126;2022-12-07T15:47:55;17.40;68.10
63047;DHT22;62025;39.238;9.126;2022-12-07T15:50:22;17.30;68.10
63047;DHT22;62025;39.238;9.126;2022-12-07T15:52:48;17.30;68.20
63047;DHT22;62025;39.238;9.126;2022-12-07T15:55:14;17.30;68.20
63047;DHT22;62025;39.238;9.126;2022-12-07T15:57:40;17.30;68.50
63047;DHT22;62025;39.238;9.126;2022-12-07T16:00:07;17.20;68.70
63047;DHT22;62025;39.238;9.126;2022-12-07T16:02:35;17.20;69.10
63047;DHT22;62025;39.238;9.126;2022-12-07T16:05:02;17.10;69.40
63047;DHT22;62025;39.238;9.126;2022-12-07T16:07:28;17.10;69.60
63047;DHT22;62025;39.238;9.126;2022-12-07T16:09:54;17.10;69.70
63047;DHT22;62025;39.238;9.126;2022-12-07T16:12:20;17.00;70.00
63047;DHT22;62025;39.238;9.126;2022-12-07T16:14:46;17.10;70.10
63047;DHT22;62025;39.238;9.126;2022-12-07T16:17:14;17.10;70.40
63047;DHT22;62025;39.238;9.126;2022-12-07T16:19:40;17.00;70.60
63047;DHT22;62025;39.238;9.126;2022-12-07T16:22:06;17.00;70.80
63047;DHT22;62025;39.238;9.126;2022-12-07T16:24:33;16.90;71.00
63047;DHT22;62025;39.238;9.126;2022-12-07T16:26:58;16.90;71.10
63047;DHT22;62025;39.238;9.126;2022-12-07T16:29:24;16.90;71.40
63047;DHT22;62025;39.238;9.126;2022-12-07T16:31:51;16.90;71.50
63047;DHT22;62025;39.238;9.126;2022-12-07T16:34:17;16.90;71.40
63047;DHT22;62025;39.238;9.126;2022-12-07T16:36:44;16.90;71.40
63047;DHT22;62025;39.238;9.126;2022-12-07T16:39:10;16.80;71.30
63047;DHT22;62025;39.238;9.126;2022-12-07T16:41:36;16.80;71.30
63047;DHT22;62025;39.238;9.126;2022-12-07T16:44:09;16.80;71.30
63047;DHT22;62025;39.238;9.126;2022-12-07T16:46:36;16.80;71.40
63047;DHT22;62025;39.238;9.126;2022-12-07T16:49:02;16.80;71.20
63047;DHT22;62025;39.238;9.126;2022-12-07T16:51:29;16.70;71.20
63047;DHT22;62025;39.238;9.126;2022-12-07T16:53:56;16.70;71.20
63047;DHT22;62025;39.238;9.126;2022-12-07T16:56:22;16.70;71.40
63047;DHT22;62025;39.238;9.126;2022-12-07T16:58:48;16.70;71.30
63047;DHT22;62025;39.238;9.126;2022-12-07T17:01:19;16.70;71.40
63047;DHT22;62025;39.238;9.126;2022-12-07T17:03:49;16.60;71.50
63047;DHT22;62025;39.238;9.126;2022-12-07T17:06:25;16.70;71.40
63047;DHT22;62025;39.238;9.126;2022-12-07T17:08:53;16.80;71.60
63047;DHT22;62025;39.238;9.126;2022-12-07T17:11:22;16.80;71.20
63047;DHT22;62025;39.238;9.126;2022-12-07T17:13:50;16.90;71.10
63047;DHT22;62025;39.238;9.126;2022-12-07T17:16:35;16.90;70.70
63047;DHT22;62025;39.238;9.126;2022-12-07T17:19:06;16.70;71.20
63047;DHT22;62025;39.238;9.126;2022-12-07T17:21:34;16.50;71.60
63047;DHT22;62025;39.238;9.126;2022-12-07T17:24:01;16.10;71.60
63047;DHT22;62025;39.238;9.126;2022-12-07T17:26:28;15.80;73.50
63047;DHT22;62025;39.238;9.126;2022-12-07T17:28:55;15.70;74.60
63047;DHT22;62025;39.238;9.126;2022-12-07T17:31:22;15.70;75.00
63047;DHT22;62025;39.238;9.126;2022-12-07T17:33:49;15.60;75.30
63047;DHT22;62025;39.238;9.126;2022-12-07T17:36:25;15.60;76.40
63047;DHT22;62025;39.238;9.126;2022-12-07T17:38:52;15.90;74.80
63047;DHT22;62025;39.238;9.126;2022-12-07T17:41:27;15.70;74.00
63047;DHT22;62025;39.238;9.126;2022-12-07T17:44:16;15.60;75.60
63047;DHT22;62025;39.238;9.126;2022-12-07T17:46:45;16.00;74.50
63047;DHT22;62025;39.238;9.126;2022-12-07T17:49:12;15.70;74.60
63047;DHT22;62025;39.238;9.126;2022-12-07T17:51:39;15.70;75.50
63047;DHT22;62025;39.238;9.126;2022-12-07T17:54:23;15.80;74.60
63047;DHT22;62025;39.238;9.126;2022-12-07T17:56:49;15.50;75.00
63047;DHT22;62025;39.238;9.126;2022-12-07T17:59:16;15.70;75.60
63047;DHT22;62025;39.238;9.126;2022-12-07T18:01:42;15.80;74.40
63047;DHT22;62025;39.238;9.126;2022-12-07T18:04:09;15.50;74.80
63047;DHT22;62025;39.238;9.126;2022-12-07T18:06:35;15.60;75.50